North Hampton, New Hampshire
Current Conditions -  °F | °C
As of 7:58 PM on Tuesday 21 Oct 2014 (Local Time) from KPSM Reporting Station
Light Rain Light Rain  
Wind Chill: 52°   Ceiling: 400
Heat Index: 52°   Visibility: 7mi
Dew Point: 50°   Wind: 12mph
Humidity: 93%   Direction: 360°N
Pressure: 29.97"   Gusts: NA
Location:  42.97°N, 70.83°W
Report Text: KPSM 212358Z 36010KT 7SM -RA OVC004 11/10 A2997 RMK AO2A RAB12 SLP153 P0001 60004 T01100099 10150 20110 52006
Loading
Personal Weather Stations






























Interactive Weather Map
Tropical Storm Tracking
New forecast layout! Learn more

10-Day Weather Forecast

Advertisements
Track Severe Weather on mobile